Time,TemperatureF,DewpointF,PressureIn,WindDirection,WindDirectionDegrees,WindSpeedMPH,WindSpeedGustMPH,Humidity,HourlyPrecipIn,Conditions,Clouds,dailyrainin,SolarRadiationWatts/m^2,SoftwareType,DateUTC
2013-03-11 00:12:00,36.4,35.0,30.32,SSE,154,0.0,0.0,93,0.00,,,0.00,0,weatherlink.com 1.10,2013-03-11 04:12:00,
2013-03-11 00:27:00,35.6,34.0,30.30,SSE,154,0.0,0.0,93,0.00,,,0.00,0,weatherlink.com 1.10,2013-03-11 04:27:00,
2013-03-11 00:42:00,34.8,33.0,30.30,SSE,154,0.0,0.0,93,0.00,,,0.00,0,weatherlink.com 1.10,2013-03-11 04:42:00,
2013-03-11 00:57:00,34.4,33.0,30.30,SSE,154,0.0,0.0,94,0.00,,,0.00,0,weatherlink.com 1.10,2013-03-11 04:57:00,
2013-03-11 01:12:00,34.0,33.0,30.30,SSE,154,0.0,0.0,94,0.00,,,0.00,0,weatherlink.com 1.10,2013-03-11 05:12:00,
2013-03-11 01:27:00,33.6,32.0,30.30,SSE,154,0.0,0.0,94,0.00,,,0.00,0,weatherlink.com 1.10,2013-03-11 05:27:00,
2013-03-11 01:42:00,33.2,32.0,30.28,SSE,154,0.0,0.0,94,0.00,,,0.00,0,weatherlink.com 1.10,2013-03-11 05:42:00,
2013-03-11 01:57:00,34.1,33.0,30.27,SSE,154,0.0,0.0,96,0.00,,,0.00,0,weatherlink.com 1.10,2013-03-11 05:57:00,
2013-03-11 02:12:00,35.5,35.0,30.28,SSE,154,0.0,0.0,97,0.00,,,0.00,0,weatherlink.com 1.10,2013-03-11 06:12:00,
2013-03-11 02:27:00,36.1,35.0,30.29,SSE,154,0.0,0.0,96,0.00,,,0.00,0,weatherlink.com 1.10,2013-03-11 06:27:00,
2013-03-11 02:42:00,35.9,35.0,30.29,SSE,154,0.0,0.0,96,0.00,,,0.00,0,weatherlink.com 1.10,2013-03-11 06:42:00,
2013-03-11 02:57:00,35.2,34.0,30.29,SSE,154,0.0,0.0,95,0.00,,,0.00,0,weatherlink.com 1.10,2013-03-11 06:57:00,
2013-03-11 03:12:00,34.5,33.0,30.27,SSE,154,0.0,0.0,95,0.00,,,0.00,0,weatherlink.com 1.10,2013-03-11 07:12:00,
2013-03-11 03:27:00,33.9,33.0,30.27,SSE,154,0.0,0.0,96,0.00,,,0.00,0,weatherlink.com 1.10,2013-03-11 07:27:00,
2013-03-11 03:42:00,33.5,32.0,30.27,SSE,154,0.0,0.0,95,0.00,,,0.00,0,weatherlink.com 1.10,2013-03-11 07:42:00,
2013-03-11 03:57:00,33.2,32.0,30.27,SSE,154,0.0,0.0,96,0.00,,,0.00,0,weatherlink.com 1.10,2013-03-11 07:57:00,
2013-03-11 04:12:00,32.9,32.0,30.26,SSE,154,0.0,0.0,96,0.00,,,0.00,0,weatherlink.com 1.10,2013-03-11 08:12:00,
2013-03-11 04:27:00,32.7,32.0,30.26,SSE,154,0.0,0.0,96,0.00,,,0.00,0,weatherlink.com 1.10,2013-03-11 08:27:00,
2013-03-11 04:42:00,32.6,32.0,30.25,SSE,154,0.0,0.0,96,0.00,,,0.00,0,weatherlink.com 1.10,2013-03-11 08:42:00,
2013-03-11 04:58:00,32.4,31.0,30.25,SSE,154,0.0,0.0,96,0.00,,,0.00,0,weatherlink.com 1.10,2013-03-11 08:58:00,
2013-03-11 05:13:00,32.6,32.0,30.25,SSE,154,0.0,0.0,96,0.00,,,0.00,0,weatherlink.com 1.10,2013-03-11 09:13:00,
2013-03-11 05:28:00,32.6,32.0,30.25,SSE,154,0.0,0.0,96,0.00,,,0.00,0,weatherlink.com 1.10,2013-03-11 09:28:00,
2013-03-11 05:43:00,32.8,32.0,30.25,SSE,154,0.0,0.0,97,0.00,,,0.00,0,weatherlink.com 1.10,2013-03-11 09:43:00,
2013-03-11 05:58:00,32.7,32.0,30.25,SSE,154,0.0,0.0,97,0.00,,,0.00,0,weatherlink.com 1.10,2013-03-11 09:58:00,
2013-03-11 06:13:00,32.6,32.0,30.25,SSE,154,0.0,0.0,97,0.00,,,0.00,0,weatherlink.com 1.10,2013-03-11 10:13:00,
2013-03-11 06:28:00,32.6,32.0,30.24,SSE,154,0.0,0.0,97,0.00,,,0.00,0,weatherlink.com 1.10,2013-03-11 10:28:00,
2013-03-11 06:43:00,32.9,32.0,30.24,SSE,154,0.0,0.0,97,0.00,,,0.00,0,weatherlink.com 1.10,2013-03-11 10:43:00,
2013-03-11 06:58:00,33.0,32.0,30.23,SSE,154,0.0,0.0,97,0.00,,,0.00,0,weatherlink.com 1.10,2013-03-11 10:58:00,
2013-03-11 07:13:00,33.4,33.0,30.23,SSE,154,0.0,0.0,97,0.00,,,0.00,0,weatherlink.com 1.10,2013-03-11 11:13:00,
2013-03-11 07:28:00,34.1,33.0,30.24,SSE,154,0.0,0.0,97,0.00,,,0.00,25,weatherlink.com 1.10,2013-03-11 11:28:00,
2013-03-11 07:43:00,34.3,34.0,30.23,SSE,154,0.0,0.0,97,0.00,,,0.00,40,weatherlink.com 1.10,2013-03-11 11:43:00,
2013-03-11 07:58:00,35.9,35.0,30.23,SSE,154,0.0,1.0,98,0.00,,,0.00,40,weatherlink.com 1.10,2013-03-11 11:58:00,
2013-03-11 08:13:00,37.4,37.0,30.24,SSE,154,0.0,0.0,98,0.00,,,0.00,46,weatherlink.com 1.10,2013-03-11 12:13:00,
2013-03-11 08:28:00,37.4,37.0,30.24,SSE,154,0.0,0.0,98,0.00,,,0.00,77,weatherlink.com 1.10,2013-03-11 12:28:00,
2013-03-11 08:43:00,38.0,38.0,30.24,SSE,154,0.0,0.0,98,0.00,,,0.00,118,weatherlink.com 1.10,2013-03-11 12:43:00,
2013-03-11 08:58:00,40.6,40.0,30.24,SSE,154,0.0,1.0,98,0.00,,,0.00,178,weatherlink.com 1.10,2013-03-11 12:58:00,
2013-03-11 09:28:00,43.6,43.0,30.25,SSE,165,0.0,2.0,98,0.00,,,0.00,151,weatherlink.com 1.10,2013-03-11 13:28:00,
2013-03-11 09:43:00,44.1,44.0,30.25,SSE,165,0.0,2.0,98,0.00,,,0.00,229,weatherlink.com 1.10,2013-03-11 13:43:00,
2013-03-11 09:58:00,44.9,44.0,30.25,SSW,192,3.0,5.0,98,0.00,,,0.00,183,weatherlink.com 1.10,2013-03-11 13:58:00,
2013-03-11 10:13:00,45.6,45.0,30.25,SSW,196,0.0,4.0,98,0.00,,,0.00,199,weatherlink.com 1.10,2013-03-11 14:13:00,
2013-03-11 10:28:00,46.5,46.0,30.25,South,172,4.0,6.0,96,0.00,,,0.00,253,weatherlink.com 1.10,2013-03-11 14:28:00,
2013-03-11 10:43:00,47.7,46.0,30.24,SSE,165,2.0,5.0,93,0.00,,,0.00,292,weatherlink.com 1.10,2013-03-11 14:43:00,
2013-03-11 10:58:00,49.2,46.0,30.23,SSE,155,5.0,8.0,89,0.00,,,0.00,285,weatherlink.com 1.10,2013-03-11 14:58:00,
2013-03-11 11:14:00,50.5,47.0,30.23,South,171,0.0,8.0,86,0.00,,,0.00,339,weatherlink.com 1.10,2013-03-11 15:14:00,
2013-03-11 11:29:00,51.4,46.0,30.22,SSE,153,2.0,6.0,83,0.00,,,0.00,348,weatherlink.com 1.10,2013-03-11 15:29:00,
2013-03-11 11:44:00,52.6,47.0,30.22,South,175,1.0,9.0,81,0.00,,,0.00,570,weatherlink.com 1.10,2013-03-11 15:44:00,
2013-03-11 11:59:00,53.7,47.0,30.22,SSE,153,1.0,6.0,79,0.00,,,0.00,689,weatherlink.com 1.10,2013-03-11 15:59:00,
2013-03-11 12:14:00,54.9,47.0,30.21,SE,135,2.0,8.0,75,0.00,,,0.00,582,weatherlink.com 1.10,2013-03-11 16:14:00,
2013-03-11 12:29:00,56.1,46.0,30.21,SSE,153,1.0,8.0,70,0.00,,,0.00,636,weatherlink.com 1.10,2013-03-11 16:29:00,
2013-03-11 12:44:00,56.1,46.0,30.21,South,185,0.0,11.0,68,0.00,,,0.00,615,weatherlink.com 1.10,2013-03-11 16:44:00,
2013-03-11 12:59:00,55.9,46.0,30.20,SE,142,3.0,13.0,69,0.00,,,0.00,557,weatherlink.com 1.10,2013-03-11 16:59:00,
2013-03-11 13:14:00,55.7,46.0,30.20,SSE,163,3.0,11.0,71,0.00,,,0.00,550,weatherlink.com 1.10,2013-03-11 17:14:00,
2013-03-11 13:29:00,55.4,47.0,30.19,SE,139,3.0,10.0,74,0.00,,,0.00,557,weatherlink.com 1.10,2013-03-11 17:29:00,
2013-03-11 13:44:00,55.3,48.0,30.18,SE,139,5.0,10.0,75,0.00,,,0.00,492,weatherlink.com 1.10,2013-03-11 17:44:00,
2013-03-11 13:59:00,55.3,47.0,30.18,SE,142,0.0,14.0,74,0.00,,,0.00,492,weatherlink.com 1.10,2013-03-11 17:59:00,
2013-03-11 14:14:00,55.7,47.0,30.17,SE,136,0.0,11.0,73,0.00,,,0.00,548,weatherlink.com 1.10,2013-03-11 18:14:00,
2013-03-11 14:29:00,55.4,48.0,30.16,SSE,150,2.0,12.0,76,0.00,,,0.00,482,weatherlink.com 1.10,2013-03-11 18:29:00,
2013-03-11 14:44:00,55.4,48.0,30.16,ESE,119,3.0,9.0,76,0.00,,,0.00,387,weatherlink.com 1.10,2013-03-11 18:44:00,
2013-03-11 14:59:00,54.8,48.0,30.15,SE,146,1.0,11.0,77,0.00,,,0.00,346,weatherlink.com 1.10,2013-03-11 18:59:00,
2013-03-11 15:14:00,54.9,48.0,30.15,SSE,164,6.0,10.0,77,0.00,,,0.00,482,weatherlink.com 1.10,2013-03-11 19:14:00,
2013-03-11 15:29:00,54.9,48.0,30.15,SSE,164,3.0,11.0,78,0.00,,,0.00,415,weatherlink.com 1.10,2013-03-11 19:29:00,
2013-03-11 15:44:00,53.9,48.0,30.15,ESE,117,4.0,14.0,79,0.00,,,0.00,246,weatherlink.com 1.10,2013-03-11 19:44:00,
2013-03-11 15:59:00,53.7,48.0,30.15,SSE,163,5.0,13.0,81,0.00,,,0.00,267,weatherlink.com 1.10,2013-03-11 19:59:00,
2013-03-11 16:14:00,53.3,48.0,30.15,SSE,165,3.0,14.0,81,0.00,,,0.00,186,weatherlink.com 1.10,2013-03-11 20:14:00,
2013-03-11 16:29:00,53.0,48.0,30.14,SSE,154,5.0,8.0,82,0.00,,,0.00,211,weatherlink.com 1.10,2013-03-11 20:29:00,
2013-03-11 16:44:00,53.1,48.0,30.14,South,186,11.0,13.0,82,0.00,,,0.00,206,weatherlink.com 1.10,2013-03-11 20:44:00,
2013-03-11 16:59:00,52.9,48.0,30.14,SSE,154,3.0,10.0,82,0.00,,,0.00,172,weatherlink.com 1.10,2013-03-11 20:59:00,
2013-03-11 17:14:00,52.1,47.0,30.13,SSE,159,5.0,7.0,84,0.00,,,0.00,165,weatherlink.com 1.10,2013-03-11 21:14:00,
2013-03-11 17:29:00,51.4,47.0,30.12,SSE,161,5.0,10.0,85,0.00,,,0.00,114,weatherlink.com 1.10,2013-03-11 21:29:00,
2013-03-11 17:44:00,50.4,47.0,30.12,SSE,154,5.0,9.0,87,0.00,,,0.00,93,weatherlink.com 1.10,2013-03-11 21:44:00,
2013-03-11 17:59:00,49.7,46.0,30.12,SE,124,0.0,6.0,88,0.00,,,0.00,65,weatherlink.com 1.10,2013-03-11 21:59:00,
2013-03-11 18:14:00,49.5,46.0,30.12,SSE,159,0.0,6.0,89,0.00,,,0.00,33,weatherlink.com 1.10,2013-03-11 22:14:00,
2013-03-11 18:29:00,49.3,47.0,30.11,South,172,3.0,6.0,90,0.00,,,0.00,19,weatherlink.com 1.10,2013-03-11 22:29:00,
2013-03-11 18:44:00,49.3,47.0,30.12,SSE,150,0.0,5.0,91,0.00,,,0.00,7,weatherlink.com 1.10,2013-03-11 22:44:00,
2013-03-11 18:59:00,49.6,47.0,30.12,South,170,1.0,7.0,92,0.00,,,0.00,0,weatherlink.com 1.10,2013-03-11 22:59:00,
2013-03-11 19:14:00,49.6,47.0,30.12,SE,145,3.0,11.0,92,0.00,,,0.00,0,weatherlink.com 1.10,2013-03-11 23:14:00,
2013-03-11 19:29:00,49.5,47.0,30.11,South,182,1.0,6.0,92,0.00,,,0.00,0,weatherlink.com 1.10,2013-03-11 23:29:00,
2013-03-11 19:44:00,49.3,47.0,30.11,SSE,159,3.0,7.0,93,0.00,,,0.00,0,weatherlink.com 1.10,2013-03-11 23:44:00,
2013-03-11 19:59:00,49.3,47.0,30.12,SSE,149,3.0,9.0,93,0.00,,,0.00,0,weatherlink.com 1.10,2013-03-11 23:59:00,
2013-03-11 20:14:00,49.6,48.0,30.12,SSE,161,3.0,6.0,94,0.00,,,0.00,0,weatherlink.com 1.10,2013-03-12 00:14:00,
2013-03-11 20:29:00,50.0,48.0,30.12,South,172,3.0,7.0,94,0.00,,,0.00,0,weatherlink.com 1.10,2013-03-12 00:29:00,
2013-03-11 20:44:00,50.2,49.0,30.12,SSE,157,2.0,6.0,94,0.00,,,0.00,0,weatherlink.com 1.10,2013-03-12 00:44:00,
2013-03-11 20:59:00,50.1,48.0,30.11,South,182,0.0,7.0,93,0.00,,,0.00,0,weatherlink.com 1.10,2013-03-12 00:59:00,
2013-03-11 21:14:00,50.0,48.0,30.11,SSE,164,6.0,9.0,94,0.00,,,0.00,0,weatherlink.com 1.10,2013-03-12 01:14:00,
2013-03-11 21:29:00,50.1,49.0,30.11,SSE,168,6.0,9.0,94,0.00,,,0.00,0,weatherlink.com 1.10,2013-03-12 01:29:00,
2013-03-11 21:44:00,50.3,49.0,30.11,ESE,123,1.0,8.0,94,0.00,,,0.00,0,weatherlink.com 1.10,2013-03-12 01:44:00,
2013-03-11 22:00:00,50.4,49.0,30.10,SSE,150,3.0,12.0,94,0.00,,,0.00,0,weatherlink.com 1.10,2013-03-12 02:00:00,
2013-03-11 22:15:00,50.3,49.0,30.09,SSE,154,2.0,11.0,94,0.00,,,0.00,0,weatherlink.com 1.10,2013-03-12 02:15:00,
2013-03-11 22:30:00,50.4,49.0,30.09,SE,134,4.0,13.0,94,0.00,,,0.00,0,weatherlink.com 1.10,2013-03-12 02:30:00,
2013-03-11 22:45:00,50.6,49.0,30.08,SSW,196,2.0,10.0,94,0.00,,,0.00,0,weatherlink.com 1.10,2013-03-12 02:45:00,
2013-03-11 23:00:00,50.8,49.0,30.09,SSE,157,4.0,11.0,93,0.00,,,0.00,0,weatherlink.com 1.10,2013-03-12 03:00:00,
2013-03-11 23:15:00,50.8,49.0,30.09,South,175,7.0,10.0,92,0.00,,,0.00,0,weatherlink.com 1.10,2013-03-12 03:15:00,
2013-03-11 23:30:00,51.2,49.0,30.09,SSE,149,2.0,10.0,93,0.00,,,0.00,0,weatherlink.com 1.10,2013-03-12 03:30:00,
2013-03-11 23:45:00,51.8,50.0,30.09,SSE,155,4.0,11.0,92,0.00,,,0.00,0,weatherlink.com 1.10,2013-03-12 03:45:00,